sensor_id;sensor_type;location;lat;lon;timestamp;temperature;humidity
19728;DHT22;10015;52.530;13.390;2023-08-21T00:01:22;24.90;99.90
19728;DHT22;10015;52.530;13.390;2023-08-21T00:03:47;24.80;99.90
19728;DHT22;10015;52.530;13.390;2023-08-21T00:06:13;24.70;99.90
19728;DHT22;10015;52.530;13.390;2023-08-21T00:08:39;24.50;99.90
19728;DHT22;10015;52.530;13.390;2023-08-21T00:11:05;24.40;99.90
19728;DHT22;10015;52.530;13.390;2023-08-21T00:13:31;24.20;99.90
19728;DHT22;10015;52.530;13.390;2023-08-21T00:15:57;24.10;99.90
19728;DHT22;10015;52.530;13.390;2023-08-21T00:18:22;24.00;99.90
19728;DHT22;10015;52.530;13.390;2023-08-21T00:20:48;23.90;99.90
19728;DHT22;10015;52.530;13.390;2023-08-21T00:23:14;24.00;99.90
19728;DHT22;10015;52.530;13.390;2023-08-21T00:25:45;23.90;99.90
19728;DHT22;10015;52.530;13.390;2023-08-21T00:28:11;23.90;99.90
19728;DHT22;10015;52.530;13.390;2023-08-21T00:30:38;24.00;99.90
19728;DHT22;10015;52.530;13.390;2023-08-21T00:33:04;24.00;99.90
19728;DHT22;10015;52.530;13.390;2023-08-21T00:35:30;24.00;99.90
19728;DHT22;10015;52.530;13.390;2023-08-21T00:37:55;24.00;99.90
19728;DHT22;10015;52.530;13.390;2023-08-21T00:40:21;24.10;99.90
19728;DHT22;10015;52.530;13.390;2023-08-21T00:42:48;24.20;99.90
19728;DHT22;10015;52.530;13.390;2023-08-21T00:45:14;24.30;99.90
19728;DHT22;10015;52.530;13.390;2023-08-21T00:47:41;24.30;99.90
19728;DHT22;10015;52.530;13.390;2023-08-21T00:50:09;24.40;99.90
19728;DHT22;10015;52.530;13.390;2023-08-21T00:52:38;24.50;99.90
19728;DHT22;10015;52.530;13.390;2023-08-21T00:55:06;24.50;99.90
19728;DHT22;10015;52.530;13.390;2023-08-21T00:57:33;24.60;99.90
19728;DHT22;10015;52.530;13.390;2023-08-21T01:00:02;24.60;99.90
19728;DHT22;10015;52.530;13.390;2023-08-21T01:02:30;24.60;99.90
19728;DHT22;10015;52.530;13.390;2023-08-21T01:04:56;24.60;99.90
19728;DHT22;10015;52.530;13.390;2023-08-21T01:07:22;24.60;99.90
19728;DHT22;10015;52.530;13.390;2023-08-21T01:10:00;24.60;99.90
19728;DHT22;10015;52.530;13.390;2023-08-21T01:12:41;24.60;99.90
19728;DHT22;10015;52.530;13.390;2023-08-21T01:15:12;24.60;99.90
19728;DHT22;10015;52.530;13.390;2023-08-21T01:17:39;24.60;99.90
19728;DHT22;10015;52.530;13.390;2023-08-21T01:20:07;24.50;99.90
19728;DHT22;10015;52.530;13.390;2023-08-21T01:22:41;24.30;99.90
19728;DHT22;10015;52.530;13.390;2023-08-21T01:25:11;24.20;99.90
19728;DHT22;10015;52.530;13.390;2023-08-21T01:27:40;24.10;99.90
19728;DHT22;10015;52.530;13.390;2023-08-21T01:30:07;24.00;99.90
19728;DHT22;10015;52.530;13.390;2023-08-21T01:35:03;24.10;99.90
19728;DHT22;10015;52.530;13.390;2023-08-21T01:37:31;24.00;99.90
19728;DHT22;10015;52.530;13.390;2023-08-21T01:39:59;23.90;99.90
19728;DHT22;10015;52.530;13.390;2023-08-21T01:42:25;23.90;99.90
19728;DHT22;10015;52.530;13.390;2023-08-21T01:44:51;23.80;99.90
19728;DHT22;10015;52.530;13.390;2023-08-21T01:47:17;23.70;99.90
19728;DHT22;10015;52.530;13.390;2023-08-21T01:49:43;23.50;99.90
19728;DHT22;10015;52.530;13.390;2023-08-21T01:52:09;23.50;99.90
19728;DHT22;10015;52.530;13.390;2023-08-21T01:54:35;23.50;99.90
19728;DHT22;10015;52.530;13.390;2023-08-21T01:57:01;23.40;99.90
19728;DHT22;10015;52.530;13.390;2023-08-21T01:59:27;23.30;99.90
19728;DHT22;10015;52.530;13.390;2023-08-21T02:01:53;23.30;99.90
19728;DHT22;10015;52.530;13.390;2023-08-21T02:04:19;23.50;99.90
19728;DHT22;10015;52.530;13.390;2023-08-21T02:06:45;23.50;99.90
19728;DHT22;10015;52.530;13.390;2023-08-21T02:09:11;23.50;99.90
19728;DHT22;10015;52.530;13.390;2023-08-21T02:11:37;23.70;99.90
19728;DHT22;10015;52.530;13.390;2023-08-21T02:14:03;23.60;99.90
19728;DHT22;10015;52.530;13.390;2023-08-21T02:16:29;23.60;99.90
19728;DHT22;10015;52.530;13.390;2023-08-21T02:18:55;23.60;99.90
19728;DHT22;10015;52.530;13.390;2023-08-21T02:21:23;23.40;99.90
19728;DHT22;10015;52.530;13.390;2023-08-21T02:23:49;23.50;99.90
19728;DHT22;10015;52.530;13.390;2023-08-21T02:26:15;23.50;99.90
19728;DHT22;10015;52.530;13.390;2023-08-21T02:28:42;23.40;99.90
19728;DHT22;10015;52.530;13.390;2023-08-21T02:31:09;23.40;99.90
19728;DHT22;10015;52.530;13.390;2023-08-21T02:33:36;23.50;99.90
19728;DHT22;10015;52.530;13.390;2023-08-21T02:36:02;23.60;99.90
19728;DHT22;10015;52.530;13.390;2023-08-21T02:38:29;23.50;99.90
19728;DHT22;10015;52.530;13.390;2023-08-21T02:40:56;23.30;99.90
19728;DHT22;10015;52.530;13.390;2023-08-21T02:43:22;23.10;99.90
19728;DHT22;10015;52.530;13.390;2023-08-21T02:45:48;23.00;99.90
19728;DHT22;10015;52.530;13.390;2023-08-21T02:48:14;22.90;99.90
19728;DHT22;10015;52.530;13.390;2023-08-21T02:50:40;23.00;99.90
19728;DHT22;10015;52.530;13.390;2023-08-21T02:53:07;22.90;99.90
19728;DHT22;10015;52.530;13.390;2023-08-21T02:55:33;23.00;99.90
19728;DHT22;10015;52.530;13.390;2023-08-21T02:57:59;23.10;99.90
19728;DHT22;10015;52.530;13.390;2023-08-21T03:00:25;23.10;99.90
19728;DHT22;10015;52.530;13.390;2023-08-21T03:02:51;23.10;99.90
19728;DHT22;10015;52.530;13.390;2023-08-21T03:05:17;23.10;99.90
19728;DHT22;10015;52.530;13.390;2023-08-21T03:07:43;23.10;99.90
19728;DHT22;10015;52.530;13.390;2023-08-21T03:10:09;23.10;99.90
19728;DHT22;10015;52.530;13.390;2023-08-21T03:12:35;23.10;99.90
19728;DHT22;10015;52.530;13.390;2023-08-21T03:15:01;23.10;99.90
19728;DHT22;10015;52.530;13.390;2023-08-21T03:17:27;23.20;99.90
19728;DHT22;10015;52.530;13.390;2023-08-21T03:19:53;23.20;99.90
19728;DHT22;10015;52.530;13.390;2023-08-21T03:22:19;23.20;99.90
19728;DHT22;10015;52.530;13.390;2023-08-21T03:24:45;23.20;99.90
19728;DHT22;10015;52.530;13.390;2023-08-21T03:27:11;23.30;99.90
19728;DHT22;10015;52.530;13.390;2023-08-21T03:29:37;23.40;99.90
19728;DHT22;10015;52.530;13.390;2023-08-21T03:32:03;23.30;99.90
19728;DHT22;10015;52.530;13.390;2023-08-21T03:34:29;23.40;99.90
19728;DHT22;10015;52.530;13.390;2023-08-21T03:36:59;23.40;99.90
19728;DHT22;10015;52.530;13.390;2023-08-21T03:39:27;23.40;99.90
19728;DHT22;10015;52.530;13.390;2023-08-21T03:41:53;23.30;99.90
19728;DHT22;10015;52.530;13.390;2023-08-21T03:44:19;23.30;99.90
19728;DHT22;10015;52.530;13.390;2023-08-21T03:46:44;23.30;99.90
19728;DHT22;10015;52.530;13.390;2023-08-21T03:49:10;23.30;99.90
19728;DHT22;10015;52.530;13.390;2023-08-21T03:51:36;23.30;99.90
19728;DHT22;10015;52.530;13.390;2023-08-21T03:54:02;23.40;99.90
19728;DHT22;10015;52.530;13.390;2023-08-21T03:56:28;23.40;99.90
19728;DHT22;10015;52.530;13.390;2023-08-21T03:58:54;23.50;99.90
19728;DHT22;10015;52.530;13.390;2023-08-21T04:01:20;23.50;99.90
19728;DHT22;10015;52.530;13.390;2023-08-21T04:03:46;23.60;99.90
19728;DHT22;10015;52.530;13.390;2023-08-21T04:06:12;23.70;99.90
19728;DHT22;10015;52.530;13.390;2023-08-21T04:08:37;23.80;99.90
19728;DHT22;10015;52.530;13.390;2023-08-21T04:11:05;23.70;99.90
19728;DHT22;10015;52.530;13.390;2023-08-21T04:13:31;23.70;99.90
19728;DHT22;10015;52.530;13.390;2023-08-21T04:15:57;23.70;99.90
19728;DHT22;10015;52.530;13.390;2023-08-21T04:18:23;23.60;99.90
19728;DHT22;10015;52.530;13.390;2023-08-21T04:20:49;23.50;99.90
19728;DHT22;10015;52.530;13.390;2023-08-21T04:23:15;23.40;99.90
19728;DHT22;10015;52.530;13.390;2023-08-21T04:25:41;23.30;99.90
19728;DHT22;10015;52.530;13.390;2023-08-21T04:28:07;23.30;99.90
19728;DHT22;10015;52.530;13.390;2023-08-21T04:30:35;23.50;99.90
19728;DHT22;10015;52.530;13.390;2023-08-21T04:33:02;23.50;99.90
19728;DHT22;10015;52.530;13.390;2023-08-21T04:35:28;23.70;99.90
19728;DHT22;10015;52.530;13.390;2023-08-21T04:37:54;23.80;99.90
19728;DHT22;10015;52.530;13.390;2023-08-21T04:40:21;23.90;99.90
19728;DHT22;10015;52.530;13.390;2023-08-21T04:42:49;24.00;99.90
19728;DHT22;10015;52.530;13.390;2023-08-21T04:45:16;24.10;99.90
19728;DHT22;10015;52.530;13.390;2023-08-21T04:47:43;24.10;99.90
19728;DHT22;10015;52.530;13.390;2023-08-21T04:50:09;24.20;99.90
19728;DHT22;10015;52.530;13.390;2023-08-21T04:52:35;24.30;99.90
19728;DHT22;10015;52.530;13.390;2023-08-21T04:55:01;24.40;99.90
19728;DHT22;10015;52.530;13.390;2023-08-21T04:57:29;24.40;99.90
19728;DHT22;10015;52.530;13.390;2023-08-21T04:59:56;24.50;99.90
19728;DHT22;10015;52.530;13.390;2023-08-21T05:02:22;24.50;99.90
19728;DHT22;10015;52.530;13.390;2023-08-21T05:04:49;24.60;99.90
19728;DHT22;10015;52.530;13.390;2023-08-21T05:07:15;24.70;99.90
19728;DHT22;10015;52.530;13.390;2023-08-21T05:09:41;24.70;99.90
19728;DHT22;10015;52.530;13.390;2023-08-21T05:12:09;24.80;99.90
19728;DHT22;10015;52.530;13.390;2023-08-21T05:14:35;24.90;99.90
19728;DHT22;10015;52.530;13.390;2023-08-21T05:17:00;25.00;99.90
19728;DHT22;10015;52.530;13.390;2023-08-21T05:19:26;25.00;99.90
19728;DHT22;10015;52.530;13.390;2023-08-21T05:21:52;25.00;99.90
19728;DHT22;10015;52.530;13.390;2023-08-21T05:24:18;25.10;99.90
19728;DHT22;10015;52.530;13.390;2023-08-21T05:26:50;25.10;99.90
19728;DHT22;10015;52.530;13.390;2023-08-21T05:29:16;25.20;99.90
19728;DHT22;10015;52.530;13.390;2023-08-21T05:31:41;25.30;99.90
19728;DHT22;10015;52.530;13.390;2023-08-21T05:34:08;25.30;99.90
19728;DHT22;10015;52.530;13.390;2023-08-21T05:36:34;25.30;99.90
19728;DHT22;10015;52.530;13.390;2023-08-21T05:39:02;25.40;99.90
19728;DHT22;10015;52.530;13.390;2023-08-21T05:41:29;25.40;99.90
19728;DHT22;10015;52.530;13.390;2023-08-21T05:43:55;25.40;99.90
19728;DHT22;10015;52.530;13.390;2023-08-21T05:46:23;25.60;99.90
19728;DHT22;10015;52.530;13.390;2023-08-21T05:48:48;25.80;99.90
19728;DHT22;10015;52.530;13.390;2023-08-21T05:51:14;26.10;99.90
19728;DHT22;10015;52.530;13.390;2023-08-21T05:53:40;26.20;99.90
19728;DHT22;10015;52.530;13.390;2023-08-21T05:56:06;26.20;99.90
19728;DHT22;10015;52.530;13.390;2023-08-21T05:58:33;26.30;99.90
19728;DHT22;10015;52.530;13.390;2023-08-21T06:00:59;26.30;99.90
19728;DHT22;10015;52.530;13.390;2023-08-21T06:03:25;26.20;99.90
19728;DHT22;10015;52.530;13.390;2023-08-21T06:06:06;26.20;99.90
19728;DHT22;10015;52.530;13.390;2023-08-21T06:08:32;26.10;99.90
19728;DHT22;10015;52.530;13.390;2023-08-21T06:10:58;26.10;99.90
19728;DHT22;10015;52.530;13.390;2023-08-21T06:13:25;26.20;99.90
19728;DHT22;10015;52.530;13.390;2023-08-21T06:15:54;26.10;99.90
19728;DHT22;10015;52.530;13.390;2023-08-21T06:18:21;26.20;99.90
19728;DHT22;10015;52.530;13.390;2023-08-21T06:20:48;26.10;99.90
19728;DHT22;10015;52.530;13.390;2023-08-21T06:23:14;26.00;99.90
19728;DHT22;10015;52.530;13.390;2023-08-21T06:25:41;26.10;99.90
19728;DHT22;10015;52.530;13.390;2023-08-21T06:28:10;26.20;99.90
19728;DHT22;10015;52.530;13.390;2023-08-21T06:30:36;26.40;99.90
19728;DHT22;10015;52.530;13.390;2023-08-21T06:33:01;26.50;99.90
19728;DHT22;10015;52.530;13.390;2023-08-21T06:35:28;26.50;99.90
19728;DHT22;10015;52.530;13.390;2023-08-21T06:37:53;26.60;99.90
19728;DHT22;10015;52.530;13.390;2023-08-21T06:40:20;26.80;99.90
19728;DHT22;10015;52.530;13.390;2023-08-21T06:42:46;26.90;99.90
19728;DHT22;10015;52.530;13.390;2023-08-21T06:45:16;27.00;99.90
19728;DHT22;10015;52.530;13.390;2023-08-21T06:47:43;27.10;99.90
19728;DHT22;10015;52.530;13.390;2023-08-21T06:50:10;27.10;99.90
19728;DHT22;10015;52.530;13.390;2023-08-21T06:52:35;27.20;99.90
19728;DHT22;10015;52.530;13.390;2023-08-21T06:55:01;27.50;99.90
19728;DHT22;10015;52.530;13.390;2023-08-21T06:57:27;27.80;99.90
19728;DHT22;10015;52.530;13.390;2023-08-21T06:59:53;28.30;99.90
19728;DHT22;10015;52.530;13.390;2023-08-21T07:02:19;28.80;99.90
19728;DHT22;10015;52.530;13.390;2023-08-21T07:04:45;29.00;99.90
19728;DHT22;10015;52.530;13.390;2023-08-21T07:07:11;29.10;99.90
19728;DHT22;10015;52.530;13.390;2023-08-21T07:09:37;29.10;99.90
19728;DHT22;10015;52.530;13.390;2023-08-21T07:12:03;29.10;99.90
19728;DHT22;10015;52.530;13.390;2023-08-21T07:14:29;29.20;99.90
19728;DHT22;10015;52.530;13.390;2023-08-21T07:16:55;29.50;99.90
19728;DHT22;10015;52.530;13.390;2023-08-21T07:19:21;29.80;99.90
19728;DHT22;10015;52.530;13.390;2023-08-21T07:21:47;30.10;99.90
19728;DHT22;10015;52.530;13.390;2023-08-21T07:24:12;30.40;99.90
19728;DHT22;10015;52.530;13.390;2023-08-21T07:26:38;30.70;99.90
19728;DHT22;10015;52.530;13.390;2023-08-21T07:29:04;30.90;99.90
19728;DHT22;10015;52.530;13.390;2023-08-21T07:31:31;31.00;99.90
19728;DHT22;10015;52.530;13.390;2023-08-21T07:33:56;31.00;99.90
19728;DHT22;10015;52.530;13.390;2023-08-21T07:36:22;31.10;99.90
19728;DHT22;10015;52.530;13.390;2023-08-21T07:38:49;31.20;99.90
19728;DHT22;10015;52.530;13.390;2023-08-21T07:41:15;31.20;99.90
19728;DHT22;10015;52.530;13.390;2023-08-21T07:43:42;31.20;99.90
19728;DHT22;10015;52.530;13.390;2023-08-21T07:46:10;31.20;99.90
19728;DHT22;10015;52.530;13.390;2023-08-21T07:48:39;31.40;99.90
19728;DHT22;10015;52.530;13.390;2023-08-21T07:51:05;31.60;99.90
19728;DHT22;10015;52.530;13.390;2023-08-21T07:53:31;31.80;99.90
19728;DHT22;10015;52.530;13.390;2023-08-21T07:55:58;32.00;99.90
19728;DHT22;10015;52.530;13.390;2023-08-21T07:58:24;32.20;99.90
19728;DHT22;10015;52.530;13.390;2023-08-21T08:00:50;32.40;99.90
19728;DHT22;10015;52.530;13.390;2023-08-21T08:03:15;32.50;99.90
19728;DHT22;10015;52.530;13.390;2023-08-21T08:05:42;32.50;99.90
19728;DHT22;10015;52.530;13.390;2023-08-21T08:08:08;32.30;99.90
19728;DHT22;10015;52.530;13.390;2023-08-21T08:10:40;32.20;99.90
19728;DHT22;10015;52.530;13.390;2023-08-21T08:13:07;32.10;99.90
19728;DHT22;10015;52.530;13.390;2023-08-21T08:15:33;32.00;99.90
19728;DHT22;10015;52.530;13.390;2023-08-21T08:18:01;31.90;99.90
19728;DHT22;10015;52.530;13.390;2023-08-21T08:20:27;31.80;99.90
19728;DHT22;10015;52.530;13.390;2023-08-21T08:22:53;31.70;99.90
19728;DHT22;10015;52.530;13.390;2023-08-21T08:25:19;31.50;99.90
19728;DHT22;10015;52.530;13.390;2023-08-21T08:27:45;31.30;99.90
19728;DHT22;10015;52.530;13.390;2023-08-21T08:30:11;31.10;99.90
19728;DHT22;10015;52.530;13.390;2023-08-21T08:32:37;30.90;99.90
19728;DHT22;10015;52.530;13.390;2023-08-21T08:35:05;30.70;99.90
19728;DHT22;10015;52.530;13.390;2023-08-21T08:37:33;30.40;99.90
19728;DHT22;10015;52.530;13.390;2023-08-21T08:39:58;30.30;99.90
19728;DHT22;10015;52.530;13.390;2023-08-21T08:42:24;30.20;99.90
19728;DHT22;10015;52.530;13.390;2023-08-21T08:44:53;30.30;99.90
19728;DHT22;10015;52.530;13.390;2023-08-21T08:47:20;30.50;99.90
19728;DHT22;10015;52.530;13.390;2023-08-21T08:49:48;30.80;99.90
19728;DHT22;10015;52.530;13.390;2023-08-21T08:52:15;31.00;99.90
19728;DHT22;10015;52.530;13.390;2023-08-21T08:54:43;31.20;99.90
19728;DHT22;10015;52.530;13.390;2023-08-21T08:57:09;31.50;99.90
19728;DHT22;10015;52.530;13.390;2023-08-21T08:59:36;31.70;99.90
19728;DHT22;10015;52.530;13.390;2023-08-21T09:02:02;31.80;99.90
19728;DHT22;10015;52.530;13.390;2023-08-21T09:04:28;31.90;99.90
19728;DHT22;10015;52.530;13.390;2023-08-21T09:07:11;32.10;99.90
19728;DHT22;10015;52.530;13.390;2023-08-21T09:09:41;32.20;99.90
19728;DHT22;10015;52.530;13.390;2023-08-21T09:12:11;32.30;99.90
19728;DHT22;10015;52.530;13.390;2023-08-21T09:14:42;32.40;99.90
19728;DHT22;10015;52.530;13.390;2023-08-21T09:17:09;32.40;99.90
19728;DHT22;10015;52.530;13.390;2023-08-21T09:19:35;32.40;99.90
19728;DHT22;10015;52.530;13.390;2023-08-21T09:22:22;32.20;99.90
19728;DHT22;10015;52.530;13.390;2023-08-21T09:25:05;32.20;99.90
19728;DHT22;10015;52.530;13.390;2023-08-21T09:27:38;32.00;99.90
19728;DHT22;10015;52.530;13.390;2023-08-21T09:30:06;31.90;99.90
19728;DHT22;10015;52.530;13.390;2023-08-21T09:32:56;31.70;99.90
19728;DHT22;10015;52.530;13.390;2023-08-21T09:35:23;31.60;99.90
19728;DHT22;10015;52.530;13.390;2023-08-21T09:37:50;31.60;99.90
19728;DHT22;10015;52.530;13.390;2023-08-21T09:40:20;31.60;99.90
19728;DHT22;10015;52.530;13.390;2023-08-21T09:42:55;31.40;99.90
19728;DHT22;10015;52.530;13.390;2023-08-21T09:45:27;31.40;99.90
19728;DHT22;10015;52.530;13.390;2023-08-21T09:47:54;31.50;99.90
19728;DHT22;10015;52.530;13.390;2023-08-21T09:50:21;31.60;99.90
19728;DHT22;10015;52.530;13.390;2023-08-21T09:52:48;31.80;99.90
19728;DHT22;10015;52.530;13.390;2023-08-21T09:55:33;31.70;99.90
19728;DHT22;10015;52.530;13.390;2023-08-21T09:58:00;31.40;99.90
19728;DHT22;10015;52.530;13.390;2023-08-21T10:00:32;31.20;99.90
19728;DHT22;10015;52.530;13.390;2023-08-21T10:03:07;31.10;99.90
19728;DHT22;10015;52.530;13.390;2023-08-21T10:05:35;31.10;99.90
19728;DHT22;10015;52.530;13.390;2023-08-21T10:08:03;31.20;99.90
19728;DHT22;10015;52.530;13.390;2023-08-21T10:10:34;31.30;99.90
19728;DHT22;10015;52.530;13.390;2023-08-21T10:13:02;31.20;99.90
19728;DHT22;10015;52.530;13.390;2023-08-21T10:15:29;31.20;99.90
19728;DHT22;10015;52.530;13.390;2023-08-21T10:17:55;31.20;99.90
19728;DHT22;10015;52.530;13.390;2023-08-21T10:20:22;31.20;99.90
19728;DHT22;10015;52.530;13.390;2023-08-21T10:22:50;31.30;99.90
19728;DHT22;10015;52.530;13.390;2023-08-21T10:25:18;31.40;99.90
19728;DHT22;10015;52.530;13.390;2023-08-21T10:28:06;31.50;99.90
19728;DHT22;10015;52.530;13.390;2023-08-21T10:30:32;31.40;99.90
19728;DHT22;10015;52.530;13.390;2023-08-21T10:32:59;31.60;99.90
19728;DHT22;10015;52.530;13.390;2023-08-21T10:35:29;31.40;99.90
19728;DHT22;10015;52.530;13.390;2023-08-21T10:40:39;31.10;99.90
19728;DHT22;10015;52.530;13.390;2023-08-21T10:46:07;31.00;99.90
19728;DHT22;10015;52.530;13.390;2023-08-21T10:48:35;30.90;99.90
19728;DHT22;10015;52.530;13.390;2023-08-21T10:51:03;30.80;99.90
19728;DHT22;10015;52.530;13.390;2023-08-21T10:53:30;30.70;99.90
19728;DHT22;10015;52.530;13.390;2023-08-21T10:56:00;30.70;99.90
19728;DHT22;10015;52.530;13.390;2023-08-21T10:58:27;30.70;99.90
19728;DHT22;10015;52.530;13.390;2023-08-21T11:00:57;30.80;99.90
19728;DHT22;10015;52.530;13.390;2023-08-21T11:03:24;30.90;99.90
19728;DHT22;10015;52.530;13.390;2023-08-21T11:06:04;30.90;99.90
19728;DHT22;10015;52.530;13.390;2023-08-21T11:08:32;30.90;99.90
19728;DHT22;10015;52.530;13.390;2023-08-21T11:11:00;30.80;99.90
19728;DHT22;10015;52.530;13.390;2023-08-21T11:13:26;30.60;99.90
19728;DHT22;10015;52.530;13.390;2023-08-21T11:16:03;30.40;99.90
19728;DHT22;10015;52.530;13.390;2023-08-21T11:18:39;30.20;99.90
19728;DHT22;10015;52.530;13.390;2023-08-21T11:21:07;30.10;99.90
19728;DHT22;10015;52.530;13.390;2023-08-21T11:23:35;30.00;99.90
19728;DHT22;10015;52.530;13.390;2023-08-21T11:26:03;29.90;99.90
19728;DHT22;10015;52.530;13.390;2023-08-21T11:28:30;29.90;99.90
19728;DHT22;10015;52.530;13.390;2023-08-21T11:30:57;29.90;99.90
19728;DHT22;10015;52.530;13.390;2023-08-21T11:33:25;29.90;99.90
19728;DHT22;10015;52.530;13.390;2023-08-21T11:35:51;30.10;99.90
19728;DHT22;10015;52.530;13.390;2023-08-21T11:38:23;30.20;99.90
19728;DHT22;10015;52.530;13.390;2023-08-21T11:40:52;30.30;99.90
19728;DHT22;10015;52.530;13.390;2023-08-21T11:43:18;30.40;99.90
19728;DHT22;10015;52.530;13.390;2023-08-21T11:45:46;30.20;99.90
19728;DHT22;10015;52.530;13.390;2023-08-21T11:48:12;30.20;99.90
19728;DHT22;10015;52.530;13.390;2023-08-21T11:50:39;30.20;99.90
19728;DHT22;10015;52.530;13.390;2023-08-21T11:53:05;30.20;99.90
19728;DHT22;10015;52.530;13.390;2023-08-21T11:55:31;30.10;99.90
19728;DHT22;10015;52.530;13.390;2023-08-21T11:57:57;29.90;99.90
19728;DHT22;10015;52.530;13.390;2023-08-21T12:00:29;29.70;99.90
19728;DHT22;10015;52.530;13.390;2023-08-21T12:03:00;29.50;99.90
19728;DHT22;10015;52.530;13.390;2023-08-21T12:05:27;29.40;99.90
19728;DHT22;10015;52.530;13.390;2023-08-21T12:07:54;29.40;99.90
19728;DHT22;10015;52.530;13.390;2023-08-21T12:10:28;29.30;99.90
19728;DHT22;10015;52.530;13.390;2023-08-21T12:12:54;29.20;99.90
19728;DHT22;10015;52.530;13.390;2023-08-21T12:15:21;29.20;99.90
19728;DHT22;10015;52.530;13.390;2023-08-21T12:17:47;29.30;99.90
19728;DHT22;10015;52.530;13.390;2023-08-21T12:20:13;29.30;99.90
19728;DHT22;10015;52.530;13.390;2023-08-21T12:22:40;29.40;99.90
19728;DHT22;10015;52.530;13.390;2023-08-21T12:25:09;29.40;99.90
19728;DHT22;10015;52.530;13.390;2023-08-21T12:27:36;29.40;99.90
19728;DHT22;10015;52.530;13.390;2023-08-21T12:30:03;29.60;99.90
19728;DHT22;10015;52.530;13.390;2023-08-21T12:32:29;29.50;99.90
19728;DHT22;10015;52.530;13.390;2023-08-21T12:34:55;29.40;99.90
19728;DHT22;10015;52.530;13.390;2023-08-21T12:37:21;29.20;99.90
19728;DHT22;10015;52.530;13.390;2023-08-21T12:39:48;29.10;99.90
19728;DHT22;10015;52.530;13.390;2023-08-21T12:42:14;29.10;99.90
19728;DHT22;10015;52.530;13.390;2023-08-21T12:44:41;29.30;99.90
19728;DHT22;10015;52.530;13.390;2023-08-21T12:47:07;29.60;99.90
19728;DHT22;10015;52.530;13.390;2023-08-21T12:49:33;29.80;99.90
19728;DHT22;10015;52.530;13.390;2023-08-21T12:52:00;29.90;99.90
19728;DHT22;10015;52.530;13.390;2023-08-21T12:54:25;30.20;99.90
19728;DHT22;10015;52.530;13.390;2023-08-21T12:56:51;30.40;99.90
19728;DHT22;10015;52.530;13.390;2023-08-21T12:59:19;30.60;99.90
19728;DHT22;10015;52.530;13.390;2023-08-21T13:01:45;30.50;99.50
19728;DHT22;10015;52.530;13.390;2023-08-21T13:04:11;30.60;98.70
19728;DHT22;10015;52.530;13.390;2023-08-21T13:06:37;30.70;99.00
19728;DHT22;10015;52.530;13.390;2023-08-21T13:09:03;30.50;99.00
19728;DHT22;10015;52.530;13.390;2023-08-21T13:11:31;30.50;99.20
19728;DHT22;10015;52.530;13.390;2023-08-21T13:13:57;30.60;98.30
19728;DHT22;10015;52.530;13.390;2023-08-21T13:16:23;30.70;98.30
19728;DHT22;10015;52.530;13.390;2023-08-21T13:18:49;30.70;98.70
19728;DHT22;10015;52.530;13.390;2023-08-21T13:21:15;30.80;98.00
19728;DHT22;10015;52.530;13.390;2023-08-21T13:23:41;30.80;98.10
19728;DHT22;10015;52.530;13.390;2023-08-21T13:26:07;30.70;98.60
19728;DHT22;10015;52.530;13.390;2023-08-21T13:28:33;30.40;98.40
19728;DHT22;10015;52.530;13.390;2023-08-21T13:30:59;30.10;98.60
19728;DHT22;10015;52.530;13.390;2023-08-21T13:33:25;29.90;99.10
19728;DHT22;10015;52.530;13.390;2023-08-21T13:35:51;29.90;99.50
19728;DHT22;10015;52.530;13.390;2023-08-21T13:38:17;30.10;99.50
19728;DHT22;10015;52.530;13.390;2023-08-21T13:40:43;30.00;99.80
19728;DHT22;10015;52.530;13.390;2023-08-21T13:43:09;29.90;99.90
19728;DHT22;10015;52.530;13.390;2023-08-21T13:45:36;29.80;99.90
19728;DHT22;10015;52.530;13.390;2023-08-21T13:48:02;29.70;99.90
19728;DHT22;10015;52.530;13.390;2023-08-21T13:50:29;29.70;99.90
19728;DHT22;10015;52.530;13.390;2023-08-21T13:52:55;29.60;99.90
19728;DHT22;10015;52.530;13.390;2023-08-21T13:55:22;29.50;99.70
19728;DHT22;10015;52.530;13.390;2023-08-21T13:57:48;29.40;99.90
19728;DHT22;10015;52.530;13.390;2023-08-21T14:00:15;29.40;99.90
19728;DHT22;10015;52.530;13.390;2023-08-21T14:02:43;29.40;99.40
19728;DHT22;10015;52.530;13.390;2023-08-21T14:05:10;29.40;99.50
19728;DHT22;10015;52.530;13.390;2023-08-21T14:07:37;29.50;99.30
19728;DHT22;10015;52.530;13.390;2023-08-21T14:10:04;29.60;99.50
19728;DHT22;10015;52.530;13.390;2023-08-21T14:12:33;29.70;99.90
19728;DHT22;10015;52.530;13.390;2023-08-21T14:14:59;29.80;99.90
19728;DHT22;10015;52.530;13.390;2023-08-21T14:17:26;29.90;99.70
19728;DHT22;10015;52.530;13.390;2023-08-21T14:19:52;29.80;99.50
19728;DHT22;10015;52.530;13.390;2023-08-21T14:22:19;29.60;99.70
19728;DHT22;10015;52.530;13.390;2023-08-21T14:24:44;29.60;99.60
19728;DHT22;10015;52.530;13.390;2023-08-21T14:27:10;29.40;99.10
19728;DHT22;10015;52.530;13.390;2023-08-21T14:29:36;29.20;99.40
19728;DHT22;10015;52.530;13.390;2023-08-21T14:32:03;29.20;99.10
19728;DHT22;10015;52.530;13.390;2023-08-21T14:34:29;29.10;99.30
19728;DHT22;10015;52.530;13.390;2023-08-21T14:36:55;29.10;98.80
19728;DHT22;10015;52.530;13.390;2023-08-21T14:39:25;29.20;98.70
19728;DHT22;10015;52.530;13.390;2023-08-21T14:41:58;29.40;98.50
19728;DHT22;10015;52.530;13.390;2023-08-21T14:44:24;29.40;98.00
19728;DHT22;10015;52.530;13.390;2023-08-21T14:46:54;29.30;98.00
19728;DHT22;10015;52.530;13.390;2023-08-21T14:49:21;29.40;98.20
19728;DHT22;10015;52.530;13.390;2023-08-21T14:51:47;29.50;97.60
19728;DHT22;10015;52.530;13.390;2023-08-21T14:54:13;29.70;98.00
19728;DHT22;10015;52.530;13.390;2023-08-21T14:56:39;29.50;97.00
19728;DHT22;10015;52.530;13.390;2023-08-21T14:59:05;29.50;97.30
19728;DHT22;10015;52.530;13.390;2023-08-21T15:01:31;29.40;97.60
19728;DHT22;10015;52.530;13.390;2023-08-21T15:03:57;29.30;97.80
19728;DHT22;10015;52.530;13.390;2023-08-21T15:06:23;29.00;97.40
19728;DHT22;10015;52.530;13.390;2023-08-21T15:08:48;28.80;97.70
19728;DHT22;10015;52.530;13.390;2023-08-21T15:11:14;28.70;97.70
19728;DHT22;10015;52.530;13.390;2023-08-21T15:13:40;28.60;98.10
19728;DHT22;10015;52.530;13.390;2023-08-21T15:16:06;28.70;98.50
19728;DHT22;10015;52.530;13.390;2023-08-21T15:18:32;28.80;98.40
19728;DHT22;10015;52.530;13.390;2023-08-21T15:20:59;28.90;98.20
19728;DHT22;10015;52.530;13.390;2023-08-21T15:23:25;29.20;98.90